« Back
NWS Peachtree City, Ga » Text Product » AHN Terminal Aerodrome Forecast


Printer-friendly Version
Current Version              Previous Versions:   1  2  3  4  5  6  7  8  9  

Terminal Aerodrome Forecast

311
FTAK31 PAJN 280500
TAFAHN
TAF
PAHN 280521Z 2806/2906 09005KT P6SM BKN070
     FM281000 30006KT P6SM BKN060
     FM281600 30010KT P6SM SCT060
     FM282200 VRB05KT P6SM FEW070
     FM290400 30007KT P6SM SKC
      AMD LTD TO CLD VIS AND WIND=

USA.gov is the U.S. government's official web portal to all federal, state and local government web resources and services.